Latest Weather Observations for Cape Grim

IDT60801

Issued at 12:32 am EST Monday 1 May 2017 (issued every 30 minutes, with the page automatically refreshed every 10 minutes)

About weather observations | Map of weather stations | Latest weather observations for TAS | Other Formats
Station Details ID: 091331 Name: CAPE GRIM Lat: -40.68 Lon: 144.69 Height: 86.0 m
Data from the previous 72 hours. | See also: Recent months at Cape Grim
Date/Time
EST
Temp
°C
App
Temp
°C
Dew
Point
°C
Rel
Hum
%
Delta-T
°C
Wind Press
QNH
hPa
Press
MSL
hPa
Rain since
9am
mm
Dir  Spd
km/h
Gust
km/h
Spd
kts
Gust
kts
01/12:30am 14.5 8.8 13.0 91 0.8 NNW 35 48 19 26 1013.1 1013.1 1.0
01/12:15am 14.1 7.7 13.1 94 0.6 NNW 39 50 21 27 1013.4 1013.4 1.0
01/12:00am 13.9 7.4 13.0 94 0.5 NNW 39 54 21 29 1013.5 1013.5 1.0
 
Date/Time
EST
Temp
°C
App
Temp
°C
Dew
Point
°C
Rel
Hum
%
Delta-T
°C
Wind Press
QNH
hPa
Press
MSL
hPa
Rain since
9am
mm
Dir  Spd
km/h
Gust
km/h
Spd
kts
Gust
kts
30/11:54pm 13.8 8.5 13.0 95 0.4 NNW 33 52 18 28 1013.6 1013.6 1.0
30/11:30pm 13.9 8.4 12.5 91 0.8 NNW 33 46 18 25 1013.9 1013.9 0.6
30/11:15pm 14.0 8.0 12.0 88 1.1 NNW 35 50 19 27 1014.1 1014.1 0.6
30/11:00pm 14.5 8.5 12.0 85 1.4 N 35 46 19 25 1014.3 1014.3 0.6
30/10:30pm 15.1 7.2 10.7 75 2.3 NNW 43 50 23 27 1014.8 1014.8 0.6
30/10:00pm 15.0 9.1 11.0 77 2.1 NNW 33 43 18 23 1015.2 1015.2 0.6
30/09:30pm 14.2 7.4 10.8 80 1.8 NNW 37 46 20 25 1015.4 1015.4 0.6
30/09:00pm 14.5 7.2 10.3 76 2.2 NNW 39 46 21 25 1015.6 1015.6 0.6
30/08:30pm 14.4 8.5 11.0 80 1.8 NNW 33 43 18 23 1015.8 1015.8 0.6
30/08:00pm 13.6 8.2 12.2 91 0.8 NNW 32 39 17 21 1016.1 1016.1 0.6
30/07:30pm 13.4 7.5 11.3 87 1.1 NNW 33 46 18 25 1016.4 1016.4 0.6
30/07:17pm 13.8 8.8 11.1 84 1.4 NNW 28 46 15 25 1016.5 1016.5 0.4
30/07:00pm 13.9 9.3 10.9 82 1.6 NNW 26 35 14 19 1016.6 1016.6 0.4
30/06:30pm 14.5 9.9 9.7 73 2.5 NW 24 32 13 17 1016.6 1016.6 0.4
30/06:00pm 14.7 10.2 8.4 66 3.2 WNW 22 32 12 17 1016.7 1016.7 0.4
30/05:30pm 14.6 8.9 8.5 67 3.1 WNW 28 35 15 19 1016.9 1016.9 0.4
30/05:00pm 14.6 8.2 8.5 67 3.1 WNW 32 44 17 24 1016.7 1016.7 0.4
30/04:30pm 14.5 9.6 9.9 74 2.4 WNW 26 33 14 18 1016.9 1016.9 0.4
30/04:00pm 14.6 9.1 9.0 69 2.9 NW 28 37 15 20 1017.0 1017.0 0.4
30/03:30pm 14.5 9.8 9.1 70 2.8 NW 24 32 13 17 1017.3 1017.3 0.4
30/03:00pm 14.3 8.7 8.9 70 2.7 NW 28 35 15 19 1017.4 1017.4 0.4
30/02:30pm 14.4 8.6 9.6 73 2.5 NW 30 35 16 19 1017.6 1017.6 0.4
30/02:00pm 14.5 9.4 9.1 70 2.8 NW 26 35 14 19 1018.0 1017.9 0.4
30/01:30pm 14.7 8.9 9.5 71 2.7 NW 30 37 16 20 1018.3 1018.2 0.4
30/01:00pm 13.7 9.5 11.2 85 1.3 NNW 24 35 13 19 1018.5 1018.4 0.4
30/12:33pm 14.0 10.7 12.7 92 0.7 NW 22 28 12 15 1018.9 1018.8 0.4
30/12:30pm 13.9 10.2 12.6 92 0.7 WNW 24 32 13 17 1019.0 1018.9 0.4
30/12:21pm 13.4 8.7 12.0 91 0.8 WNW 28 37 15 20 1019.1 1019.0 0.4
30/12:00pm 13.7 9.5 11.0 84 1.4 NW 24 35 13 19 1019.4 1019.3 0.4
30/11:31am 13.2 9.4 12.3 94 0.5 NW 24 32 13 17 1019.9 1019.8 0.4
30/11:30am 13.2 9.4 12.3 94 0.5 NW 24 32 13 17 1020.0 1019.9 0.4
30/11:00am 13.2 10.4 12.6 96 0.3 NW 19 26 10 14 1020.3 1020.2 0.4
30/10:30am 13.0 10.5 12.2 95 0.4 N 17 20 9 11 1020.6 1020.5 0.0
30/10:00am 13.8 12.2 12.7 93 0.6 NW 13 20 7 11 1020.8 1020.7 0.0
30/09:30am 13.1 10.8 11.7 91 0.7 WNW 15 20 8 11 1021.1 1021.0 0.0
30/09:29am 13.2 10.9 11.8 91 0.8 WNW 15 20 8 11 1021.1 1021.0 0.0
30/09:00am 13.0 12.3 11.9 93 0.6 NW 7 13 4 7 1021.1 1021.0 0.2
30/08:38am 12.5 10.5 11.6 94 0.5 NW 13 17 7 9 1021.2 1021.1 0.2
30/08:30am 12.3 10.2 11.2 93 0.6 NW 13 15 7 8 1021.2 1021.1 0.2
30/08:00am 12.3 10.7 11.4 94 0.5 NNW 11 13 6 7 1021.2 1021.1 0.2
30/07:40am 12.1 9.1 10.8 92 0.7 NW 17 26 9 14 1021.1 1021.0 0.2
30/07:30am 12.4 9.8 10.6 89 0.9 WNW 15 24 8 13 1021.0 1020.9 0.2
30/07:00am 12.5 9.8 9.0 79 1.8 NNW 13 19 7 10 1020.8 1020.7 0.2
30/06:30am 12.3 8.8 8.8 79 1.8 NW 17 26 9 14 1020.8 1020.7 0.2
30/06:00am 12.2 10.2 8.7 79 1.7 WNW 9 13 5 7 1021.0 1020.9 0.2
30/05:30am 12.1 9.4 9.1 82 1.5 NW 13 19 7 10 1020.9 1020.8 0.2
30/05:00am 12.0 10.2 9.6 85 1.2 W 9 13 5 7 1020.8 1020.7 0.2
30/04:41am 11.7 9.7 10.3 91 0.7 WNW 11 13 6 7 1020.8 1020.7 0.2
30/04:30am 11.5 10.3 10.2 92 0.7 WNW 7 15 4 8 1020.7 1020.6 0.2
30/04:00am 11.5 9.9 10.2 92 0.7 WNW 9 13 5 7 1020.8 1020.7 0.2
30/03:55am 11.4 9.0 10.0 91 0.7 WNW 13 19 7 10 1020.8 1020.7 0.2
30/03:30am 12.1 10.3 9.3 83 1.4 W 9 17 5 9 1020.9 1020.8 0.2
30/03:00am 12.0 9.0 9.2 83 1.4 W 15 17 8 9 1021.0 1020.9 0.2
30/02:30am 12.0 8.7 9.6 85 1.2 WNW 17 20 9 11 1021.1 1021.0 0.2
30/02:00am 12.2 9.3 9.8 85 1.2 WSW 15 20 8 11 1021.2 1021.1 0.2
30/01:30am 12.2 9.9 10.4 89 0.9 WSW 13 20 7 11 1021.3 1021.2 0.2
30/01:29am 12.3 10.1 10.7 90 0.8 WSW 13 20 7 11 1021.3 1021.2 0.2
30/01:00am 11.8 8.8 10.7 93 0.6 SSW 17 26 9 14 1021.6 1021.6 0.2
30/12:30am 12.2 9.0 11.3 94 0.5 SW 19 26 10 14 1021.5 1021.5 0.2
30/12:00am 12.1 8.9 11.2 94 0.5 SW 19 24 10 13 1021.5 1021.5 0.2
 
Date/Time
EST
Temp
°C
App
Temp
°C
Dew
Point
°C
Rel
Hum
%
Delta-T
°C
Wind Press
QNH
hPa
Press
MSL
hPa
Rain since
9am
mm
Dir  Spd
km/h
Gust
km/h
Spd
kts
Gust
kts
29/11:30pm 11.9 8.5 11.1 95 0.4 SW 20 26 11 14 1021.7 1021.7 0.2
29/11:00pm 11.8 9.0 11.2 96 0.3 SSW 17 22 9 12 1021.8 1021.8 0.2
29/10:59pm 11.8 9.0 11.2 96 0.3 SSW 17 22 9 12 1021.8 1021.8 0.2
29/10:30pm 11.8 8.4 11.2 96 0.3 SSW 20 30 11 16 1021.8 1021.8 0.2
29/10:13pm 11.7 8.8 11.1 96 0.3 SW 17 24 9 13 1021.9 1021.9 0.2
29/10:00pm 11.5 9.0 10.9 96 0.3 S 15 20 8 11 1021.9 1021.9 0.2
29/09:56pm 11.5 9.0 10.9 96 0.3 S 15 17 8 9 1021.9 1021.9 0.2
29/09:44pm 11.5 9.3 10.7 95 0.4 SSE 13 17 7 9 1022.0 1022.0 0.0
29/09:30pm 11.7 9.9 10.8 94 0.5 SSE 11 13 6 7 1021.9 1021.9 0.0
29/09:17pm 11.8 9.6 10.9 94 0.5 S 13 15 7 8 1021.9 1021.9 0.0
29/09:14pm 11.9 9.4 11.0 94 0.5 S 15 20 8 11 1021.9 1021.9 0.0
29/09:03pm 11.9 9.7 10.8 93 0.6 SSE 13 17 7 9 1021.9 1021.9 0.0
29/09:00pm 11.9 9.7 10.8 93 0.6 SSE 13 17 7 9 1021.9 1021.9 0.0
29/08:59pm 11.9 9.6 10.6 92 0.7 SSE 13 17 7 9 1021.8 1021.8 0.0
29/08:30pm 12.2 9.9 10.6 90 0.8 S 13 17 7 9 1021.8 1021.8 0.0
29/08:18pm 12.4 10.4 10.3 87 1.1 S 11 15 6 8 1021.8 1021.8 0.0
29/08:00pm 12.5 10.4 9.9 84 1.3 SSE 11 15 6 8 1021.8 1021.8 0.0
29/07:30pm 12.9 9.2 10.3 84 1.4 SSW 20 28 11 15 1021.8 1021.8 0.0
29/07:00pm 13.1 9.3 9.9 81 1.6 SSW 20 26 11 14 1021.6 1021.6 0.0
29/06:30pm 13.3 9.5 9.9 80 1.8 SW 20 28 11 15 1021.3 1021.2 0.0
29/06:00pm 13.3 8.8 9.9 80 1.7 SW 24 33 13 18 1021.1 1021.0 0.0
29/05:30pm 13.1 6.9 9.5 79 1.8 SW 32 44 17 24 1020.8 1020.7 0.0
29/05:00pm 13.2 6.6 10.0 81 1.6 SW 35 46 19 25 1020.6 1020.5 0.0
29/04:30pm 13.0 6.9 9.8 81 1.6 SW 32 44 17 24 1020.5 1020.4 0.0
29/04:28pm 13.2 7.2 10.2 82 1.6 SW 32 44 17 24 1020.4 1020.3 0.0
29/04:12pm 13.0 6.9 10.4 84 1.4 SW 33 44 18 24 1020.4 1020.3 0.0
29/04:07pm 13.1 7.2 10.6 85 1.3 SW 32 44 17 24 1020.3 1020.2 0.0
29/04:00pm 13.1 7.7 10.8 86 1.2 SW 30 43 16 23 1020.2 1020.1 0.0
29/03:54pm 12.9 7.0 10.6 86 1.2 SW 32 43 17 23 1020.1 1020.0 0.0
29/03:30pm 13.1 6.3 10.6 85 1.3 SW 37 48 20 26 1019.9 1019.8 0.0
29/03:14pm 13.4 5.4 10.6 83 1.5 SW 43 54 23 29 1019.6 1019.5 0.0
29/03:00pm 13.4 6.3 10.9 85 1.3 SW 39 50 21 27 1019.5 1019.4 0.0
29/02:45pm 13.8 7.5 12.2 90 0.9 SW 37 48 20 26 1019.6 1019.5 0.0
29/02:39pm 13.2 6.6 11.3 88 1.0 SW 37 48 20 26 1019.7 1019.6 0.0
29/02:30pm 13.1 6.3 10.8 86 1.2 SW 37 50 20 27 1019.7 1019.6 0.0
29/02:26pm 13.7 7.1 11.2 85 1.3 SW 37 50 20 27 1019.6 1019.5 0.0
29/02:00pm 13.9 6.1 11.2 84 1.4 SW 43 54 23 29 1019.3 1019.2 0.0
29/01:30pm 14.4 6.2 9.8 74 2.4 SW 43 54 23 29 1019.4 1019.3 0.0
29/01:00pm 14.0 6.0 10.4 79 1.9 SW 43 52 23 28 1019.8 1019.7 0.0
29/12:33pm 14.3 7.6 10.9 80 1.8 SW 37 48 20 26 1020.1 1020.0 0.0
29/12:30pm 14.3 8.0 10.9 80 1.8 SW 35 46 19 25 1020.1 1020.0 0.0
29/12:14pm 13.2 6.8 11.9 92 0.7 SW 37 52 20 28 1020.2 1020.1 0.0
29/12:04pm 14.5 8.8 11.3 81 1.7 SW 32 50 17 27 1020.2 1020.1 0.0
29/12:00pm 14.4 8.7 11.2 81 1.7 SW 32 44 17 24 1020.2 1020.1 0.0
29/11:30am 14.2 7.1 10.8 80 1.8 SW 39 44 21 24 1020.5 1020.4 0.0
29/11:00am 13.1 5.8 11.5 90 0.8 SW 41 52 22 28 1020.3 1020.2 0.0
29/10:30am 12.7 6.9 11.6 93 0.6 SW 33 46 18 25 1020.3 1020.2 0.0
29/10:05am 13.4 7.0 10.6 83 1.5 SW 35 54 19 29 1020.0 1019.9 0.0
29/10:00am 13.7 6.5 10.7 82 1.6 SW 39 54 21 29 1020.0 1019.9 0.0
29/09:30am 13.4 5.3 10.2 81 1.7 SW 43 54 23 29 1019.8 1019.7 0.0
29/09:00am 13.6 4.9 10.0 79 1.9 SW 46 57 25 31 1019.5 1019.4 1.2
29/08:30am 13.6 4.2 10.0 79 1.9 SW 50 61 27 33 1019.1 1019.0 1.2
29/08:00am 13.6 4.8 11.0 84 1.4 SW 48 57 26 31 1018.6 1018.5 1.2
29/07:30am 12.7 3.2 11.3 91 0.7 SW 52 65 28 35 1018.2 1018.1 1.2
29/07:04am 14.0 6.9 10.8 81 1.7 SW 39 63 21 34 1017.6 1017.6 1.0
29/07:00am 14.1 6.2 10.9 81 1.7 SW 43 59 23 32 1017.6 1017.6 1.0
29/06:30am 13.9 6.6 10.3 79 1.9 SW 39 57 21 31 1017.5 1017.5 1.0
29/06:00am 13.8 6.1 10.2 79 1.9 SW 41 61 22 33 1017.2 1017.2 1.0
29/05:30am 14.0 6.3 10.2 78 2.0 SW 41 63 22 34 1017.0 1017.0 1.0
29/05:00am 13.2 7.2 10.9 86 1.2 SW 33 54 18 29 1016.8 1016.8 1.0
29/04:30am 13.9 8.2 11.1 83 1.5 SW 32 52 17 28 1016.7 1016.7 1.0
29/04:00am 13.8 8.0 11.5 86 1.2 SW 33 54 18 29 1016.8 1016.8 1.0
29/03:32am 13.8 6.4 12.5 92 0.7 SW 43 65 23 35 1016.7 1016.7 1.0
29/03:30am 13.7 6.3 12.4 92 0.7 SW 43 61 23 33 1016.7 1016.7 1.0
29/03:21am 13.8 6.2 12.5 92 0.7 SW 44 65 24 35 1016.7 1016.7 1.0
29/03:16am 14.1 6.8 12.8 92 0.7 SW 43 61 23 33 1016.7 1016.7 1.0
29/03:06am 14.0 6.4 12.4 90 0.9 SW 44 65 24 35 1016.7 1016.7 1.0
29/03:00am 14.1 7.5 12.7 91 0.8 SW 39 57 21 31 1016.7 1016.7 1.0
29/02:30am 14.2 8.5 13.1 93 0.6 WSW 35 56 19 30 1016.8 1016.8 0.8
29/02:22am 13.9 7.8 13.0 94 0.5 WSW 37 57 20 31 1016.8 1016.8 0.8
29/02:00am 13.9 6.7 13.0 94 0.5 SW 43 63 23 34 1016.8 1016.8 0.8
29/01:53am 14.3 8.7 13.2 93 0.6 WSW 35 59 19 32 1016.8 1016.8 0.8
29/01:51am 14.4 8.8 13.3 93 0.6 WSW 35 59 19 32 1016.8 1016.8 0.6
29/01:41am 14.4 9.3 13.1 92 0.7 W 32 56 17 30 1016.7 1016.7 0.6
29/01:30am 14.3 9.0 13.2 93 0.6 W 33 52 18 28 1016.8 1016.8 0.6
29/01:00am 14.0 9.6 12.9 93 0.6 WSW 28 50 15 27 1016.8 1016.8 0.6
29/12:41am 14.3 9.5 13.0 92 0.7 WSW 30 50 16 27 1016.8 1016.8 0.6
29/12:31am 14.0 9.1 12.7 92 0.7 WSW 30 56 16 30 1016.7 1016.7 0.6
29/12:30am 14.2 9.0 12.9 92 0.7 WSW 32 56 17 30 1016.7 1016.7 0.6
29/12:00am 14.3 8.8 12.3 88 1.1 W 33 52 18 28 1016.8 1016.8 0.6
 
Date/Time
EST
Temp
°C
App
Temp
°C
Dew
Point
°C
Rel
Hum
%
Delta-T
°C
Wind Press
QNH
hPa
Press
MSL
hPa
Rain since
9am
mm
Dir  Spd
km/h
Gust
km/h
Spd
kts
Gust
kts
28/11:50pm 13.6 8.0 12.2 91 0.8 WSW 33 56 18 30 1016.8 1016.8 0.6
28/11:30pm 14.3 8.9 12.9 91 0.8 W 33 54 18 29 1016.9 1016.9 0.6
28/11:20pm 13.9 8.1 12.8 93 0.6 W 35 56 19 30 1017.0 1017.0 0.6
28/11:05pm 14.1 8.3 12.8 92 0.7 W 35 57 19 31 1016.9 1016.9 0.6
28/11:00pm 14.5 8.8 12.9 90 0.9 W 35 54 19 29 1016.9 1016.9 0.4
28/10:30pm 14.5 8.6 12.4 87 1.1 W 35 57 19 31 1017.0 1017.0 0.4
28/10:00pm 14.4 9.6 13.0 91 0.8 WSW 30 48 16 26 1017.2 1017.2 0.4
28/09:33pm 14.4 8.3 13.0 91 0.8 W 37 59 20 32 1017.1 1017.1 0.4
28/09:31pm 14.3 7.8 12.9 91 0.8 W 39 59 21 32 1017.2 1017.2 0.4
28/09:30pm 14.3 7.8 13.0 92 0.7 W 39 56 21 30 1017.1 1017.1 0.4
28/09:00pm 14.3 8.7 13.3 94 0.6 W 35 54 19 29 1017.0 1017.0 0.4
28/08:51pm 14.2 9.1 13.1 93 0.6 WSW 32 56 17 30 1017.0 1017.0 0.4
28/08:30pm 14.6 8.9 13.1 91 0.8 W 35 56 19 30 1017.0 1017.0 0.4
28/08:00pm 14.9 8.7 12.6 86 1.3 W 37 59 20 32 1017.0 1017.0 0.4
28/07:30pm 14.4 8.4 13.3 93 0.6 W 37 59 20 32 1017.0 1017.0 0.4
28/07:00pm 14.9 9.2 13.1 89 1.0 W 35 54 19 29 1017.2 1017.2 0.4
28/06:49pm 14.8 9.1 13.0 89 1.0 W 35 54 19 29 1017.1 1017.1 0.4
28/06:37pm 14.6 8.2 13.3 92 0.7 W 39 54 21 29 1017.0 1017.0 0.4
28/06:30pm 14.5 8.2 13.4 93 0.6 W 39 59 21 32 1017.0 1017.0 0.4
28/06:05pm 14.4 8.4 13.3 93 0.6 W 37 57 20 31 1016.9 1016.9 0.4
28/06:00pm 14.7 8.8 13.7 94 0.6 W 37 54 20 29 1016.9 1016.9 0.4
28/05:33pm 14.7 8.7 13.4 92 0.7 W 37 56 20 30 1016.9 1016.9 0.4
28/05:30pm 14.6 8.7 13.5 93 0.6 W 37 54 20 29 1016.9 1016.9 0.4
28/05:01pm 14.7 8.7 13.4 92 0.7 W 37 56 20 30 1016.8 1016.8 0.4
28/05:00pm 14.8 8.9 13.7 93 0.6 W 37 50 20 27 1016.8 1016.8 0.4
28/04:45pm 14.7 9.1 13.4 92 0.7 W 35 46 19 25 1016.9 1016.9 0.4
28/04:30pm 14.6 9.3 13.1 91 0.8 W 33 48 18 26 1017.0 1017.0 0.4
28/04:05pm 14.2 8.6 13.4 95 0.4 W 35 59 19 32 1017.2 1017.2 0.4
28/04:04pm 14.2 8.6 13.4 95 0.4 W 35 59 19 32 1017.1 1017.1 0.4
28/04:00pm 14.1 8.8 13.1 94 0.6 W 33 50 18 27 1017.2 1017.2 0.4
28/03:47pm 14.4 9.3 13.6 95 0.4 W 33 50 18 27 1017.2 1017.2 0.2
28/03:30pm 14.4 9.5 13.6 95 0.4 W 32 44 17 24 1017.3 1017.3 0.2
28/03:06pm 14.3 9.3 13.3 94 0.6 W 32 52 17 28 1017.2 1017.2 0.0
28/03:00pm 14.2 8.6 13.4 95 0.4 W 35 50 19 27 1017.2 1017.2 0.0
28/02:33pm 14.8 9.3 13.5 92 0.7 W 35 48 19 26 1017.3 1017.3 0.0
28/02:30pm 14.7 9.1 13.2 91 0.8 W 35 48 19 26 1017.3 1017.3 0.0
28/02:00pm 15.2 10.7 12.5 84 1.5 W 28 43 15 23 1017.6 1017.6 0.0
28/01:52pm 14.8 9.9 12.5 86 1.3 W 30 44 16 24 1017.8 1017.7 0.0
28/01:30pm 14.4 9.7 13.1 92 0.7 W 30 43 16 23 1017.9 1017.8 0.0
28/01:00pm 14.0 8.7 12.4 90 0.9 W 32 46 17 25 1018.3 1018.2 0.0
28/12:53pm 14.9 10.0 12.6 86 1.3 W 30 43 16 23 1018.4 1018.3 0.0
28/12:32pm 14.5 9.5 12.2 86 1.3 W 30 48 16 26 1018.5 1018.4 0.0
28/12:30pm 14.7 9.7 12.2 85 1.4 W 30 43 16 23 1018.6 1018.5 0.0
28/12:20pm 14.7 9.8 12.6 87 1.2 W 30 46 16 25 1018.7 1018.6 0.0
28/12:02pm 14.0 8.9 12.0 88 1.1 W 30 43 16 23 1019.1 1019.0 0.0
28/12:00pm 14.3 9.4 12.7 90 0.9 W 30 41 16 22 1019.1 1019.0 0.0
28/11:30am 14.5 9.6 11.3 81 1.7 W 28 41 15 22 1019.3 1019.2 0.0
28/11:11am 14.5 9.4 10.7 78 2.0 W 28 46 15 25 1019.5 1019.4 0.0
28/11:00am 14.5 8.6 10.5 77 2.1 W 32 44 17 24 1019.4 1019.3 0.0
28/10:50am 14.6 9.1 10.4 76 2.2 W 30 50 16 27 1019.5 1019.4 0.0
28/10:30am 14.2 8.8 10.8 80 1.8 W 30 43 16 23 1019.5 1019.4 0.0
28/10:00am 13.9 9.3 10.9 82 1.6 W 26 46 14 25 1019.5 1019.4 0.0
28/09:30am 14.0 9.5 10.2 78 2.0 W 24 41 13 22 1019.4 1019.3 0.0
28/09:18am 13.6 8.3 9.8 78 2.0 W 28 46 15 25 1019.4 1019.3 0.0
28/09:00am 13.6 9.2 10.4 81 1.7 W 24 41 13 22 1019.4 1019.3 0.0
28/08:30am 13.8 9.7 10.2 79 1.9 WSW 22 39 12 21 1019.5 1019.4 0.0
28/08:00am 13.7 8.5 10.1 79 1.9 W 28 44 15 24 1019.3 1019.2 0.0
28/07:56am 13.7 8.5 10.1 79 1.9 W 28 46 15 25 1019.3 1019.2 0.0
28/07:30am 13.2 8.8 10.4 83 1.5 WSW 24 44 13 24 1018.9 1018.8 0.0
28/07:01am 13.4 8.7 10.8 84 1.4 W 26 44 14 24 1018.5 1018.4 0.0
28/07:00am 13.3 8.6 10.7 84 1.4 W 26 44 14 24 1018.5 1018.4 0.0
28/06:47am 13.2 8.2 10.9 86 1.2 W 28 48 15 26 1018.5 1018.4 0.0
28/06:46am 13.3 8.6 10.8 85 1.3 W 26 44 14 24 1018.5 1018.4 0.0
28/06:30am 13.1 8.9 11.0 87 1.1 WSW 24 39 13 21 1018.4 1018.3 0.0
28/06:01am 13.1 9.0 11.5 90 0.9 WSW 24 46 13 25 1018.3 1018.2 0.0
28/06:00am 13.0 8.9 11.4 90 0.8 WSW 24 46 13 25 1018.3 1018.2 0.0
28/05:39am 12.8 8.3 11.5 92 0.7 SW 26 43 14 23 1018.4 1018.3 0.0
28/05:36am 12.7 8.2 11.4 92 0.7 SW 26 43 14 23 1018.4 1018.3 0.0
28/05:30am 13.0 8.9 11.6 91 0.7 WSW 24 41 13 22 1018.3 1018.2 0.0
28/05:22am 13.3 10.0 11.5 89 1.0 WSW 20 39 11 21 1018.2 1018.1 0.0
28/05:02am 13.3 8.1 10.3 82 1.6 WSW 28 46 15 25 1018.1 1018.0 0.0
28/05:00am 13.4 8.6 10.2 81 1.7 WSW 26 44 14 24 1018.1 1018.0 0.0
28/04:30am 13.5 8.3 10.3 81 1.7 WSW 28 44 15 24 1018.0 1017.9 0.0
28/04:07am 13.5 8.2 9.9 79 1.9 WSW 28 48 15 26 1017.9 1017.8 0.0
28/04:00am 13.8 9.4 10.4 80 1.8 WSW 24 43 13 23 1017.8 1017.7 0.0
28/03:33am 13.8 8.5 9.8 77 2.1 W 28 46 15 25 1017.9 1017.8 0.0
28/03:30am 13.8 8.1 9.8 77 2.1 W 30 46 16 25 1018.0 1017.9 0.0
28/03:00am 14.2 9.0 10.4 78 2.0 W 28 46 15 25 1017.9 1017.8 0.0
28/02:40am 14.3 9.2 10.7 79 1.9 W 28 46 15 25 1018.0 1017.9 0.0
28/02:30am 14.2 10.4 11.2 82 1.6 W 22 39 12 21 1018.1 1018.0 0.0
28/02:00am 14.4 8.3 9.6 73 2.5 W 32 52 17 28 1018.0 1017.9 0.0
28/01:55am 14.5 8.3 9.9 74 2.4 W 33 52 18 28 1018.0 1017.9 0.0
28/01:42am 14.3 8.0 10.9 80 1.8 W 35 48 19 26 1018.0 1017.9 0.0
28/01:30am 14.4 9.7 11.9 85 1.4 W 28 43 15 23 1018.0 1017.9 0.0
28/01:06am 14.2 9.8 12.9 92 0.7 W 28 41 15 22 1018.4 1018.3 0.0
28/01:00am 14.1 9.6 12.7 91 0.8 W 28 41 15 22 1018.4 1018.3 0.0
28/12:57am 14.1 10.0 12.7 91 0.8 W 26 39 14 21 1018.4 1018.3 0.0

Other Formats:

Comma delimited format used in spreadsheet applications
http://www.bom.gov.au/fwo/IDT60801/IDT60801.95954.axf

JavaScript Object Notation format (JSON) in row-major order
http://www.bom.gov.au/fwo/IDT60801/IDT60801.95954.json